Time;durP1;ratioP1;P1;durP2;ratioP2;P2;SDS_P1;SDS_P2;PMS_P1;PMS_P2;Temp;Humidity;BMP_temperature;BMP_pressure;BME280_temperature;BME280_humidity;BME280_pressure;Samples;Min_cycle;Max_cycle;Signal;HPM_P1;HPM_P2
2023/07/24 00:00:44;;;;;;;4.20;2.15;;;;;;;;;;5053221;28;20037;-72
2023/07/24 00:03:09;;;;;;;4.10;2.00;;;;;;;;;;5052045;28;20044;-72
2023/07/24 00:05:34;;;;;;;4.88;2.25;;;;;;;;;;5051965;28;20485;-72
2023/07/24 00:07:59;;;;;;;4.50;2.30;;;;;;;;;;5049931;28;20033;-72
2023/07/24 00:10:25;;;;;;;5.22;2.70;;;;;;;;;;5056177;28;20055;-72
2023/07/24 00:12:50;;;;;;;5.07;2.20;;;;;;;;;;5061026;28;20033;-72
2023/07/24 00:15:15;;;;;;;4.50;2.40;;;;;;;;;;5050695;28;20017;-72
2023/07/24 00:17:40;;;;;;;3.92;1.92;;;;;;;;;;5051328;28;20473;-72
2023/07/24 00:20:06;;;;;;;5.07;2.42;;;;;;;;;;5052934;28;20025;-72
2023/07/24 00:22:31;;;;;;;4.25;2.42;;;;;;;;;;5055021;28;20035;-72
2023/07/24 00:24:57;;;;;;;5.95;2.55;;;;;;;;;;5056271;28;20025;-72
2023/07/24 00:27:22;;;;;;;6.43;2.50;;;;;;;;;;5054845;28;20016;-72
2023/07/24 00:29:47;;;;;;;4.85;2.70;;;;;;;;;;5054802;28;20021;-72
2023/07/24 00:32:12;;;;;;;5.95;2.60;;;;;;;;;;5054760;28;20067;-72
2023/07/24 00:34:37;;;;;;;5.50;2.42;;;;;;;;;;5054790;28;20108;-72
2023/07/24 00:37:03;;;;;;;5.53;2.85;;;;;;;;;;5054662;28;20028;-72
2023/07/24 00:39:29;;;;;;;6.88;2.83;;;;;;;;;;5054840;28;20014;-72
2023/07/24 00:41:54;;;;;;;4.90;2.47;;;;;;;;;;5053704;28;20024;-72
2023/07/24 00:44:20;;;;;;;5.55;2.83;;;;;;;;;;5053948;28;20099;-72
2023/07/24 00:46:45;;;;;;;5.18;2.70;;;;;;;;;;5061768;28;20008;-72
2023/07/24 00:49:10;;;;;;;5.18;2.78;;;;;;;;;;5073481;28;20023;-72
2023/07/24 00:51:36;;;;;;;5.32;3.00;;;;;;;;;;5073526;28;20021;-72
2023/07/24 00:54:02;;;;;;;4.85;3.10;;;;;;;;;;5073242;28;20020;-72
2023/07/24 00:56:28;;;;;;;14.68;3.25;;;;;;;;;;5073499;28;20032;-72
2023/07/24 00:58:55;;;;;;;6.15;3.15;;;;;;;;;;5055901;28;20365;-72
2023/07/24 01:04:23;;;;;;;5.25;2.80;;;;;;;;;;5084655;23;20066;-64
2023/07/24 01:06:49;;;;;;;6.30;3.28;;;;;;;;;;5115553;28;20023;-63
2023/07/24 01:09:14;;;;;;;4.80;2.83;;;;;;;;;;5114841;28;20031;-63
2023/07/24 01:11:42;;;;;;;6.25;3.05;;;;;;;;;;5115815;28;20459;-65
2023/07/24 01:14:25;;;;;;;5.88;3.30;;;;;;;;;;5115150;28;20083;-63
2023/07/24 01:16:53;;;;;;;5.57;2.92;;;;;;;;;;5112155;28;20031;-64
2023/07/24 01:19:21;;;;;;;7.18;3.47;;;;;;;;;;5115266;28;20481;-63
2023/07/24 01:22:09;;;;;;;5.80;3.25;;;;;;;;;;5115452;28;20467;-63
2023/07/24 01:24:57;;;;;;;6.43;3.22;;;;;;;;;;5068097;28;20088;-63
2023/07/24 01:27:26;;;;;;;5.70;3.03;;;;;;;;;;5114690;28;20031;-63
2023/07/24 01:29:51;;;;;;;8.38;3.33;;;;;;;;;;5114622;28;20024;-63
2023/07/24 01:32:17;;;;;;;5.22;3.20;;;;;;;;;;5114772;28;20051;-64
2023/07/24 01:34:42;;;;;;;5.32;2.85;;;;;;;;;;5114848;28;20023;-63
2023/07/24 01:37:08;;;;;;;5.75;3.22;;;;;;;;;;5115044;28;20027;-64
2023/07/24 01:39:34;;;;;;;5.68;3.33;;;;;;;;;;5115322;28;20451;-63
2023/07/24 01:41:59;;;;;;;5.25;2.85;;;;;;;;;;5114889;28;20022;-63
2023/07/24 01:44:25;;;;;;;4.95;3.08;;;;;;;;;;5115205;28;20019;-62
2023/07/24 01:46:50;;;;;;;5.55;3.25;;;;;;;;;;5115083;28;20478;-62
2023/07/24 01:49:15;;;;;;;5.38;3.00;;;;;;;;;;5114801;28;20493;-63
2023/07/24 01:51:40;;;;;;;4.82;3.10;;;;;;;;;;5114373;28;20073;-63
2023/07/24 01:54:06;;;;;;;7.95;3.80;;;;;;;;;;5114401;28;20011;-63
2023/07/24 01:56:31;;;;;;;7.60;3.35;;;;;;;;;;5114638;28;20429;-63
2023/07/24 01:58:56;;;;;;;6.00;3.22;;;;;;;;;;5115100;28;20023;-63
2023/07/24 02:01:21;;;;;;;6.32;3.65;;;;;;;;;;5114637;28;20115;-63
2023/07/24 02:03:46;;;;;;;5.70;3.25;;;;;;;;;;5114379;28;20093;-63
2023/07/24 02:06:12;;;;;;;5.32;3.00;;;;;;;;;;5113885;28;20379;-63
2023/07/24 02:08:37;;;;;;;6.55;3.30;;;;;;;;;;5113474;28;20364;-63
2023/07/24 02:11:02;;;;;;;7.35;3.45;;;;;;;;;;5114166;28;20110;-63
2023/07/24 02:13:27;;;;;;;5.45;3.30;;;;;;;;;;5114889;28;20042;-63
2023/07/24 02:15:53;;;;;;;5.43;2.80;;;;;;;;;;5114860;28;20429;-68
2023/07/24 02:18:18;;;;;;;6.38;3.15;;;;;;;;;;5114680;28;20536;-68
2023/07/24 02:20:50;;;;;;;5.05;3.00;;;;;;;;;;5110641;28;20049;-67
2023/07/24 02:23:15;;;;;;;5.97;3.10;;;;;;;;;;5114479;28;20433;-67
2023/07/24 02:25:41;;;;;;;5.38;3.05;;;;;;;;;;5114405;28;20024;-67
2023/07/24 02:28:06;;;;;;;5.35;3.10;;;;;;;;;;5114098;28;20039;-67
2023/07/24 02:30:31;;;;;;;6.13;3.47;;;;;;;;;;5114410;28;20030;-63
2023/07/24 02:32:56;;;;;;;6.18;3.83;;;;;;;;;;5114002;28;20059;-63
2023/07/24 02:35:22;;;;;;;6.45;3.00;;;;;;;;;;5114267;28;20027;-64
2023/07/24 02:37:47;;;;;;;6.28;3.45;;;;;;;;;;5113483;28;20360;-63
2023/07/24 02:40:12;;;;;;;6.03;3.60;;;;;;;;;;5113916;28;20479;-63
2023/07/24 02:42:37;;;;;;;5.47;3.47;;;;;;;;;;5113993;28;20352;-62
2023/07/24 02:45:03;;;;;;;8.60;4.00;;;;;;;;;;5113973;28;20459;-63
2023/07/24 02:47:28;;;;;;;7.32;4.03;;;;;;;;;;5113779;28;20483;-63
2023/07/24 02:49:54;;;;;;;6.78;3.88;;;;;;;;;;5113798;28;20027;-64
2023/07/24 02:52:19;;;;;;;7.53;3.55;;;;;;;;;;5111859;28;20019;-63
2023/07/24 02:54:44;;;;;;;6.32;3.67;;;;;;;;;;5111264;28;20386;-63
2023/07/24 02:57:09;;;;;;;8.48;3.55;;;;;;;;;;5113693;28;20046;-63
2023/07/24 02:59:35;;;;;;;5.38;3.13;;;;;;;;;;5114011;28;20041;-63
2023/07/24 03:02:01;;;;;;;6.70;3.90;;;;;;;;;;5113666;28;20636;-64
2023/07/24 03:04:26;;;;;;;6.70;3.85;;;;;;;;;;5113217;28;20380;-63
2023/07/24 03:06:51;;;;;;;7.47;4.03;;;;;;;;;;5113581;28;20020;-63
2023/07/24 03:09:16;;;;;;;7.32;4.43;;;;;;;;;;5113734;28;20063;-62
2023/07/24 03:11:42;;;;;;;7.43;4.13;;;;;;;;;;5113783;28;20046;-62
2023/07/24 03:14:07;;;;;;;8.35;4.18;;;;;;;;;;5113980;28;20020;-63
2023/07/24 03:16:32;;;;;;;7.43;4.10;;;;;;;;;;5113717;28;20030;-63
2023/07/24 03:18:57;;;;;;;6.90;4.05;;;;;;;;;;5113217;28;20037;-63
2023/07/24 03:21:23;;;;;;;10.18;4.57;;;;;;;;;;5113927;28;20032;-63
2023/07/24 03:23:48;;;;;;;8.77;4.45;;;;;;;;;;5113637;28;20026;-63
2023/07/24 03:26:13;;;;;;;8.65;4.18;;;;;;;;;;5113660;28;20094;-63
2023/07/24 03:28:38;;;;;;;9.52;4.55;;;;;;;;;;5113647;28;20028;-63
2023/07/24 03:31:04;;;;;;;8.18;4.10;;;;;;;;;;5113510;28;20028;-63
2023/07/24 03:33:29;;;;;;;7.13;4.40;;;;;;;;;;5113562;28;20020;-63
2023/07/24 03:35:54;;;;;;;6.85;3.85;;;;;;;;;;5113379;28;20024;-63
2023/07/24 03:38:19;;;;;;;9.18;4.35;;;;;;;;;;5113133;28;20055;-63
2023/07/24 03:40:45;;;;;;;9.15;4.15;;;;;;;;;;5113693;28;20031;-63
2023/07/24 03:43:10;;;;;;;7.78;3.90;;;;;;;;;;5111516;28;20019;-63
2023/07/24 03:45:35;;;;;;;6.95;4.00;;;;;;;;;;5093100;28;20020;-63
2023/07/24 03:48:00;;;;;;;6.40;3.88;;;;;;;;;;5092686;28;20077;-63
2023/07/24 03:50:26;;;;;;;7.85;3.67;;;;;;;;;;5093198;28;20032;-63
2023/07/24 03:52:51;;;;;;;8.40;4.03;;;;;;;;;;5094018;28;20391;-63
2023/07/24 03:55:16;;;;;;;6.65;3.90;;;;;;;;;;5111574;28;20028;-63
2023/07/24 03:57:41;;;;;;;7.72;4.03;;;;;;;;;;5098667;28;20467;-63
2023/07/24 04:00:07;;;;;;;7.13;4.20;;;;;;;;;;5115735;28;20376;-64
2023/07/24 04:02:32;;;;;;;9.07;4.18;;;;;;;;;;5116776;28;20417;-63
2023/07/24 04:04:57;;;;;;;7.43;4.15;;;;;;;;;;5116376;28;20090;-63
2023/07/24 04:07:22;;;;;;;7.20;4.20;;;;;;;;;;5117318;28;20076;-63
2023/07/24 04:09:48;;;;;;;7.88;4.10;;;;;;;;;;5116792;28;20016;-64
2023/07/24 04:12:13;;;;;;;6.20;3.97;;;;;;;;;;5108740;28;20098;-63
2023/07/24 04:14:38;;;;;;;5.65;3.35;;;;;;;;;;5116863;28;20019;-63
2023/07/24 04:17:03;;;;;;;6.00;3.70;;;;;;;;;;5116525;28;20020;-63
2023/07/24 04:19:29;;;;;;;5.80;3.35;;;;;;;;;;5116481;28;20030;-63
2023/07/24 04:21:54;;;;;;;8.38;3.28;;;;;;;;;;5117072;28;20141;-63
2023/07/24 04:24:19;;;;;;;6.38;3.45;;;;;;;;;;5116793;28;20051;-63
2023/07/24 04:26:44;;;;;;;5.95;3.33;;;;;;;;;;5116418;28;20456;-64
2023/07/24 04:29:10;;;;;;;6.05;3.53;;;;;;;;;;5116624;28;20463;-63
2023/07/24 04:31:35;;;;;;;8.65;3.42;;;;;;;;;;5110738;28;20036;-63
2023/07/24 04:34:00;;;;;;;5.20;3.28;;;;;;;;;;5095818;28;20036;-63
2023/07/24 04:36:25;;;;;;;5.32;3.20;;;;;;;;;;5096193;28;20032;-63
2023/07/24 04:38:51;;;;;;;6.25;3.30;;;;;;;;;;5095990;28;20367;-63
2023/07/24 04:41:16;;;;;;;10.55;3.55;;;;;;;;;;5095946;28;20459;-63
2023/07/24 04:43:41;;;;;;;6.63;3.33;;;;;;;;;;5095636;28;20365;-63
2023/07/24 04:46:07;;;;;;;7.43;3.50;;;;;;;;;;5115536;28;20027;-63
2023/07/24 04:48:32;;;;;;;7.57;3.28;;;;;;;;;;5116181;28;20058;-63
2023/07/24 04:50:57;;;;;;;7.93;3.28;;;;;;;;;;5111670;28;20031;-63
2023/07/24 04:53:23;;;;;;;7.30;3.63;;;;;;;;;;5097600;28;22151;-63
2023/07/24 04:55:48;;;;;;;6.15;3.60;;;;;;;;;;5115915;28;20042;-63
2023/07/24 04:58:14;;;;;;;5.57;3.50;;;;;;;;;;5115615;28;20114;-63
2023/07/24 05:00:39;;;;;;;5.72;3.53;;;;;;;;;;5116157;28;20016;-63
2023/07/24 05:03:05;;;;;;;6.03;3.78;;;;;;;;;;5115531;28;20026;-63
2023/07/24 05:05:31;;;;;;;7.63;3.55;;;;;;;;;;5114246;28;20131;-63
2023/07/24 05:07:56;;;;;;;5.85;3.38;;;;;;;;;;5115690;28;20539;-63
2023/07/24 05:10:21;;;;;;;7.15;3.75;;;;;;;;;;5115120;28;20032;-63
2023/07/24 05:12:47;;;;;;;5.60;3.70;;;;;;;;;;5115438;28;20032;-63
2023/07/24 05:15:12;;;;;;;5.55;3.58;;;;;;;;;;5115398;28;20026;-63
2023/07/24 05:17:37;;;;;;;7.28;3.38;;;;;;;;;;5115615;28;20030;-63
2023/07/24 05:20:03;;;;;;;9.27;4.00;;;;;;;;;;5114539;28;20016;-63
2023/07/24 05:22:28;;;;;;;7.75;3.90;;;;;;;;;;5115561;28;20099;-63
2023/07/24 05:24:53;;;;;;;7.35;3.88;;;;;;;;;;5115262;28;20522;-63
2023/07/24 05:27:18;;;;;;;7.78;3.75;;;;;;;;;;5115270;28;20039;-63
2023/07/24 05:29:44;;;;;;;10.85;4.00;;;;;;;;;;5115322;28;20044;-64
2023/07/24 05:32:10;;;;;;;9.43;3.80;;;;;;;;;;5115190;28;20065;-64
2023/07/24 05:34:35;;;;;;;8.75;3.80;;;;;;;;;;5114795;28;20020;-64
2023/07/24 05:37:00;;;;;;;8.65;4.47;;;;;;;;;;5113509;28;20053;-63
2023/07/24 05:39:25;;;;;;;7.72;4.10;;;;;;;;;;5115138;28;20029;-64
2023/07/24 05:41:50;;;;;;;8.38;4.60;;;;;;;;;;5115276;28;20024;-64
2023/07/24 05:44:16;;;;;;;8.10;4.55;;;;;;;;;;5111959;28;20110;-67
2023/07/24 05:46:41;;;;;;;9.20;4.90;;;;;;;;;;5114391;28;20095;-67
2023/07/24 05:49:06;;;;;;;8.23;4.90;;;;;;;;;;5115073;28;20028;-67
2023/07/24 05:51:31;;;;;;;8.48;5.20;;;;;;;;;;5114882;28;20027;-68
2023/07/24 05:53:57;;;;;;;9.57;5.40;;;;;;;;;;5114551;28;20020;-68
2023/07/24 05:56:22;;;;;;;10.82;6.18;;;;;;;;;;5114875;28;20023;-68
2023/07/24 05:58:47;;;;;;;9.82;5.85;;;;;;;;;;5096597;28;20019;-68
2023/07/24 06:01:12;;;;;;;11.27;6.03;;;;;;;;;;5112370;28;20098;-68
2023/07/24 06:03:41;;;;;;;9.07;5.63;;;;;;;;;;5096209;28;20475;-68
2023/07/24 06:06:06;;;;;;;11.38;6.18;;;;;;;;;;5101280;28;20033;-68
2023/07/24 06:08:31;;;;;;;10.73;6.47;;;;;;;;;;5114286;28;20422;-68
2023/07/24 06:10:56;;;;;;;9.82;6.50;;;;;;;;;;5114459;28;20032;-68
2023/07/24 06:13:22;;;;;;;12.43;6.80;;;;;;;;;;5114537;28;20445;-68
2023/07/24 06:15:48;;;;;;;12.98;7.88;;;;;;;;;;5112581;28;20510;-68
2023/07/24 06:18:13;;;;;;;13.57;8.52;;;;;;;;;;5114133;28;20023;-68
2023/07/24 06:20:38;;;;;;;13.15;8.43;;;;;;;;;;5114345;28;20528;-68
2023/07/24 06:23:04;;;;;;;15.18;8.75;;;;;;;;;;5114457;28;20618;-68
2023/07/24 06:25:30;;;;;;;14.02;8.82;;;;;;;;;;5114365;28;20375;-68
2023/07/24 06:27:55;;;;;;;13.45;8.95;;;;;;;;;;5095158;28;20376;-67
2023/07/24 06:30:20;;;;;;;15.23;9.43;;;;;;;;;;5093844;28;20027;-68
2023/07/24 06:32:46;;;;;;;13.68;8.50;;;;;;;;;;5108331;28;20476;-67
2023/07/24 06:35:11;;;;;;;14.88;9.15;;;;;;;;;;5114198;28;20463;-67
2023/07/24 06:37:36;;;;;;;14.43;9.60;;;;;;;;;;5114032;28;20463;-67
2023/07/24 06:40:01;;;;;;;15.77;9.23;;;;;;;;;;5114174;28;20459;-67
2023/07/24 06:42:27;;;;;;;14.57;9.57;;;;;;;;;;5113830;28;20554;-67
2023/07/24 06:44:52;;;;;;;14.68;9.65;;;;;;;;;;5113663;28;20057;-67
2023/07/24 06:47:17;;;;;;;17.10;10.07;;;;;;;;;;5113995;28;20031;-67
2023/07/24 06:49:42;;;;;;;18.80;10.95;;;;;;;;;;5114237;28;20020;-67
2023/07/24 06:52:08;;;;;;;17.27;11.23;;;;;;;;;;5101572;28;20016;-67
2023/07/24 06:54:33;;;;;;;23.80;11.95;;;;;;;;;;5093876;28;20483;-67
2023/07/24 06:56:58;;;;;;;19.10;11.93;;;;;;;;;;5093573;28;20023;-67
2023/07/24 06:59:23;;;;;;;19.40;12.10;;;;;;;;;;5096699;28;20031;-67
2023/07/24 07:01:48;;;;;;;18.67;12.48;;;;;;;;;;5113279;28;20027;-67
2023/07/24 07:04:14;;;;;;;19.15;12.73;;;;;;;;;;5113165;28;20092;-67
2023/07/24 07:06:39;;;;;;;17.65;11.50;;;;;;;;;;5113551;28;20020;-67
2023/07/24 07:09:05;;;;;;;17.35;10.85;;;;;;;;;;5113810;28;20026;-66
2023/07/24 07:11:30;;;;;;;17.95;11.85;;;;;;;;;;5113623;28;20103;-66
2023/07/24 07:13:55;;;;;;;15.23;9.98;;;;;;;;;;5113771;28;20018;-66
2023/07/24 07:16:21;;;;;;;14.35;9.90;;;;;;;;;;5113464;28;20106;-66
2023/07/24 07:18:46;;;;;;;14.30;9.20;;;;;;;;;;5113894;28;20028;-65
2023/07/24 07:21:11;;;;;;;14.23;8.55;;;;;;;;;;5113662;28;20023;-66
2023/07/24 07:23:36;;;;;;;15.10;8.75;;;;;;;;;;5113646;28;20027;-66
2023/07/24 07:26:02;;;;;;;11.15;6.97;;;;;;;;;;5113431;28;20016;-66
2023/07/24 07:28:27;;;;;;;10.90;7.55;;;;;;;;;;5113927;28;20062;-65
2023/07/24 07:30:53;;;;;;;11.57;6.88;;;;;;;;;;5117784;28;20028;-65
2023/07/24 07:33:21;;;;;;;11.02;6.93;;;;;;;;;;5117667;28;20483;-66
2023/07/24 07:35:46;;;;;;;8.95;5.82;;;;;;;;;;5117334;28;20056;-66
2023/07/24 07:38:12;;;;;;;10.98;7.20;;;;;;;;;;5117122;28;20109;-66
2023/07/24 07:40:38;;;;;;;10.43;6.82;;;;;;;;;;5114925;28;20027;-66
2023/07/24 07:43:03;;;;;;;11.07;7.57;;;;;;;;;;5097161;28;20468;-66
2023/07/24 07:45:28;;;;;;;11.52;7.15;;;;;;;;;;5097106;28;20070;-66
2023/07/24 07:47:54;;;;;;;12.80;7.05;;;;;;;;;;5097118;28;20102;-66
2023/07/24 07:50:19;;;;;;;12.52;8.20;;;;;;;;;;5096940;28;20093;-66
2023/07/24 07:52:45;;;;;;;12.85;8.65;;;;;;;;;;5096573;28;20026;-66
2023/07/24 07:55:10;;;;;;;11.93;8.05;;;;;;;;;;5096635;28;20110;-66
2023/07/24 07:57:36;;;;;;;13.60;8.70;;;;;;;;;;5099095;28;20030;-66
2023/07/24 08:00:02;;;;;;;12.13;8.30;;;;;;;;;;5096818;28;20020;-66
2023/07/24 08:02:27;;;;;;;11.60;8.20;;;;;;;;;;5096820;28;20484;-65
2023/07/24 08:04:52;;;;;;;13.23;9.15;;;;;;;;;;5098912;28;20046;-66
2023/07/24 08:07:18;;;;;;;14.07;9.15;;;;;;;;;;5110444;28;20027;-66
2023/07/24 08:09:46;;;;;;;15.63;9.50;;;;;;;;;;5116124;28;20027;-67
2023/07/24 08:12:11;;;;;;;14.30;8.55;;;;;;;;;;5116784;28;20027;-67
2023/07/24 08:14:36;;;;;;;19.10;10.30;;;;;;;;;;5117014;28;20027;-67
2023/07/24 08:17:01;;;;;;;16.02;9.02;;;;;;;;;;5116866;28;20020;-67
2023/07/24 08:19:30;;;;;;;11.90;8.55;;;;;;;;;;5116577;28;20036;-66
2023/07/24 08:21:55;;;;;;;16.83;9.02;;;;;;;;;;5116869;28;20020;-67
2023/07/24 08:24:20;;;;;;;12.05;7.43;;;;;;;;;;5105024;28;20472;-67
2023/07/24 08:26:45;;;;;;;12.55;7.47;;;;;;;;;;5096489;28;20464;-67
2023/07/24 08:29:10;;;;;;;12.93;6.32;;;;;;;;;;5096248;28;20491;-67
2023/07/24 08:31:36;;;;;;;8.88;5.28;;;;;;;;;;5096274;28;20490;-66
2023/07/24 08:34:01;;;;;;;9.68;6.20;;;;;;;;;;5095882;28;20020;-66
2023/07/24 08:36:26;;;;;;;9.75;6.53;;;;;;;;;;5113207;28;20059;-66
2023/07/24 08:38:51;;;;;;;9.00;5.57;;;;;;;;;;5116236;28;20028;-66
2023/07/24 08:41:17;;;;;;;8.05;5.00;;;;;;;;;;5115910;28;20073;-67
2023/07/24 08:43:42;;;;;;;12.65;5.50;;;;;;;;;;5114279;28;20028;-67
2023/07/24 08:46:08;;;;;;;8.13;5.03;;;;;;;;;;5115868;28;20080;-67
2023/07/24 08:48:37;;;;;;;7.18;4.85;;;;;;;;;;5110116;28;20031;-67
2023/07/24 08:51:06;;;;;;;5.85;4.15;;;;;;;;;;5095769;28;20445;-66
2023/07/24 08:53:38;;;;;;;6.88;4.30;;;;;;;;;;5107541;28;20109;-67
2023/07/24 08:56:04;;;;;;;5.55;3.80;;;;;;;;;;5116047;28;20371;-66
2023/07/24 08:58:30;;;;;;;5.68;4.05;;;;;;;;;;5115769;28;20114;-65
2023/07/24 09:00:56;;;;;;;7.47;4.13;;;;;;;;;;5116184;28;20019;-64
2023/07/24 09:03:21;;;;;;;4.10;2.72;;;;;;;;;;5113957;28;20024;-64
2023/07/24 09:05:46;;;;;;;4.10;2.28;;;;;;;;;;5113892;28;20076;-64
2023/07/24 09:08:12;;;;;;;3.63;2.22;;;;;;;;;;5113341;28;20020;-65
2023/07/24 09:10:38;;;;;;;3.40;2.20;;;;;;;;;;5112697;28;20532;-65
2023/07/24 09:13:03;;;;;;;4.15;2.17;;;;;;;;;;5114828;28;20427;-65
2023/07/24 09:15:29;;;;;;;4.93;2.13;;;;;;;;;;5114626;28;20075;-65
2023/07/24 09:17:54;;;;;;;5.95;2.40;;;;;;;;;;5113579;28;20023;-64
2023/07/24 09:20:20;;;;;;;3.80;2.30;;;;;;;;;;5113683;28;20015;-64
2023/07/24 09:22:53;;;;;;;4.38;2.72;;;;;;;;;;5113522;28;20020;-64
2023/07/24 09:25:18;;;;;;;3.95;2.40;;;;;;;;;;5113518;28;20028;-64
2023/07/24 09:27:43;;;;;;;5.20;2.70;;;;;;;;;;5113480;28;20106;-64
2023/07/24 09:30:13;;;;;;;5.28;3.20;;;;;;;;;;5114395;28;20028;-64
2023/07/24 09:32:38;;;;;;;5.30;3.30;;;;;;;;;;5115051;28;20023;-63
2023/07/24 09:35:04;;;;;;;7.18;3.65;;;;;;;;;;5115355;28;20020;-64
2023/07/24 09:37:32;;;;;;;7.07;4.00;;;;;;;;;;5114876;28;20020;-64
2023/07/24 09:39:58;;;;;;;6.18;3.33;;;;;;;;;;5115301;28;20114;-64
2023/07/24 09:42:30;;;;;;;5.35;3.13;;;;;;;;;;5115343;28;20035;-65
2023/07/24 09:44:55;;;;;;;5.70;3.35;;;;;;;;;;5115179;28;20361;-64
2023/07/24 09:47:20;;;;;;;7.50;3.97;;;;;;;;;;5096820;28;20019;-64
2023/07/24 09:49:46;;;;;;;6.43;4.00;;;;;;;;;;5096426;28;20024;-64
2023/07/24 09:52:12;;;;;;;5.10;3.28;;;;;;;;;;5096392;28;20036;-63
2023/07/24 09:54:46;;;;;;;5.43;3.50;;;;;;;;;;5094414;28;20471;-64
2023/07/24 09:57:13;;;;;;;6.43;3.85;;;;;;;;;;5094206;28;20507;-64
2023/07/24 09:59:38;;;;;;;5.75;3.47;;;;;;;;;;5102673;28;20421;-64
2023/07/24 10:02:04;;;;;;;4.95;3.20;;;;;;;;;;5112321;28;20027;-64
2023/07/24 10:04:29;;;;;;;9.73;4.15;;;;;;;;;;5114155;28;20514;-64
2023/07/24 10:06:55;;;;;;;7.70;3.50;;;;;;;;;;5113394;28;20023;-64
2023/07/24 10:09:23;;;;;;;6.65;3.65;;;;;;;;;;5110366;28;20086;-64
2023/07/24 10:11:49;;;;;;;5.10;3.30;;;;;;;;;;5114510;28;20034;-64
2023/07/24 10:14:14;;;;;;;5.00;2.88;;;;;;;;;;5114277;28;20020;-64
2023/07/24 10:16:40;;;;;;;6.25;3.67;;;;;;;;;;5111508;28;20107;-64
2023/07/24 10:19:15;;;;;;;4.88;2.88;;;;;;;;;;5114279;28;20099;-64
2023/07/24 10:21:44;;;;;;;5.18;2.65;;;;;;;;;;5112053;28;20518;-64
2023/07/24 10:24:09;;;;;;;5.10;2.55;;;;;;;;;;5114342;28;20070;-65
2023/07/24 10:26:36;;;;;;;5.28;2.90;;;;;;;;;;5107617;28;20016;-65
2023/07/24 10:29:01;;;;;;;5.25;2.95;;;;;;;;;;5093704;28;20051;-65
2023/07/24 10:31:27;;;;;;;5.63;3.13;;;;;;;;;;5093578;28;20059;-65
2023/07/24 10:33:52;;;;;;;4.88;2.53;;;;;;;;;;5093840;28;20103;-65
2023/07/24 10:36:19;;;;;;;5.25;2.65;;;;;;;;;;5108583;28;20047;-64
2023/07/24 10:38:45;;;;;;;6.07;2.90;;;;;;;;;;5114021;28;20372;-66
2023/07/24 10:41:11;;;;;;;4.72;2.80;;;;;;;;;;5113849;28;20026;-65
2023/07/24 10:43:43;;;;;;;5.50;3.15;;;;;;;;;;5112099;28;20015;-65
2023/07/24 10:46:09;;;;;;;6.15;3.65;;;;;;;;;;5094890;28;20468;-66
2023/07/24 10:48:34;;;;;;;5.80;3.40;;;;;;;;;;5093613;28;20027;-66
2023/07/24 10:51:05;;;;;;;5.55;3.50;;;;;;;;;;5106148;28;20047;-65
2023/07/24 10:53:30;;;;;;;5.65;3.00;;;;;;;;;;5109573;28;20028;-65
2023/07/24 10:55:56;;;;;;;8.85;2.90;;;;;;;;;;5112078;28;20077;-64
2023/07/24 10:58:24;;;;;;;5.90;3.70;;;;;;;;;;5113222;28;20023;-65
2023/07/24 11:00:49;;;;;;;5.40;3.10;;;;;;;;;;5113539;28;20018;-66
2023/07/24 11:03:15;;;;;;;7.03;3.00;;;;;;;;;;5112994;28;20028;-65
2023/07/24 11:05:40;;;;;;;7.35;3.60;;;;;;;;;;5113840;28;20108;-66
2023/07/24 11:08:15;;;;;;;6.47;3.33;;;;;;;;;;5113679;28;20023;-66
2023/07/24 11:10:47;;;;;;;6.20;3.42;;;;;;;;;;5112955;28;20497;-67
2023/07/24 11:13:12;;;;;;;6.18;3.22;;;;;;;;;;5113838;28;20455;-66
2023/07/24 11:15:37;;;;;;;6.45;3.65;;;;;;;;;;5113233;28;20076;-67
2023/07/24 11:18:04;;;;;;;6.20;3.58;;;;;;;;;;5113180;28;20019;-67
2023/07/24 11:20:29;;;;;;;6.03;3.60;;;;;;;;;;5112989;28;20023;-67
2023/07/24 11:22:57;;;;;;;7.32;3.85;;;;;;;;;;5112099;28;20486;-67
2023/07/24 11:25:22;;;;;;;5.78;3.75;;;;;;;;;;5113224;28;20475;-67
2023/07/24 11:27:48;;;;;;;5.43;3.72;;;;;;;;;;5112665;28;20031;-66
2023/07/24 11:30:18;;;;;;;5.13;3.30;;;;;;;;;;5110966;28;20393;-66
2023/07/24 11:32:44;;;;;;;7.22;3.50;;;;;;;;;;5108524;28;20383;-67
2023/07/24 11:35:10;;;;;;;5.82;3.30;;;;;;;;;;5106615;28;20028;-66
2023/07/24 11:37:36;;;;;;;6.28;3.05;;;;;;;;;;5110904;28;20036;-66
2023/07/24 11:40:04;;;;;;;7.15;3.60;;;;;;;;;;5108762;28;20110;-66
2023/07/24 11:42:30;;;;;;;7.22;3.80;;;;;;;;;;5104499;28;20048;-65
2023/07/24 11:44:55;;;;;;;6.70;3.55;;;;;;;;;;5109997;28;20414;-66
2023/07/24 11:47:20;;;;;;;6.38;3.58;;;;;;;;;;5110186;28;20440;-66
2023/07/24 11:49:56;;;;;;;6.28;3.70;;;;;;;;;;5108678;28;20073;-66
2023/07/24 11:52:21;;;;;;;6.38;3.38;;;;;;;;;;5109982;28;20425;-66
2023/07/24 11:54:55;;;;;;;6.63;3.40;;;;;;;;;;5109618;28;20028;-65
2023/07/24 11:57:20;;;;;;;6.63;3.67;;;;;;;;;;5109069;28;20023;-66
2023/07/24 11:59:46;;;;;;;7.85;3.72;;;;;;;;;;5109492;28;20030;-66
2023/07/24 12:02:11;;;;;;;7.97;3.67;;;;;;;;;;5108790;28;20023;-66
2023/07/24 12:04:37;;;;;;;6.40;3.78;;;;;;;;;;5109961;28;20468;-66
2023/07/24 12:07:07;;;;;;;6.75;3.20;;;;;;;;;;5102002;28;20015;-66
2023/07/24 12:09:32;;;;;;;7.38;2.97;;;;;;;;;;5106729;28;20442;-66
2023/07/24 12:11:58;;;;;;;4.85;2.72;;;;;;;;;;5111452;28;20047;-66
2023/07/24 12:14:23;;;;;;;5.75;3.15;;;;;;;;;;5109507;28;20031;-66
2023/07/24 12:16:48;;;;;;;6.50;3.30;;;;;;;;;;5115029;28;20027;-67
2023/07/24 12:19:14;;;;;;;5.25;2.97;;;;;;;;;;5112131;28;20016;-67
2023/07/24 12:21:39;;;;;;;6.85;3.80;;;;;;;;;;5114421;28;20016;-67
2023/07/24 12:24:04;;;;;;;5.47;3.40;;;;;;;;;;5114159;28;20145;-67
2023/07/24 12:26:30;;;;;;;4.68;2.55;;;;;;;;;;5113448;28;20110;-67
2023/07/24 12:28:55;;;;;;;5.80;3.10;;;;;;;;;;5111077;28;20022;-67
2023/07/24 12:31:20;;;;;;;5.68;2.80;;;;;;;;;;5113378;28;20027;-66
2023/07/24 12:33:45;;;;;;;7.30;3.55;;;;;;;;;;5109780;28;20084;-67
2023/07/24 12:36:11;;;;;;;5.28;3.05;;;;;;;;;;5113382;28;20020;-67
2023/07/24 12:38:36;;;;;;;6.13;3.63;;;;;;;;;;5112951;28;20046;-67
2023/07/24 12:41:01;;;;;;;6.05;3.60;;;;;;;;;;5114363;28;20016;-67
2023/07/24 12:43:26;;;;;;;11.73;3.50;;;;;;;;;;5113003;28;20091;-67
2023/07/24 12:45:51;;;;;;;6.65;3.47;;;;;;;;;;5112767;28;20430;-67
2023/07/24 12:48:17;;;;;;;6.20;3.58;;;;;;;;;;5111513;28;20431;-67
2023/07/24 12:50:42;;;;;;;7.03;3.83;;;;;;;;;;5112327;28;20387;-67
2023/07/24 12:53:08;;;;;;;7.20;3.50;;;;;;;;;;5112499;28;20055;-67
2023/07/24 12:55:33;;;;;;;6.65;3.15;;;;;;;;;;5113509;28;20467;-67
2023/07/24 12:57:58;;;;;;;5.50;3.10;;;;;;;;;;5113332;28;20107;-67
2023/07/24 13:00:23;;;;;;;5.30;3.03;;;;;;;;;;5112258;28;20019;-67
2023/07/24 13:02:48;;;;;;;8.40;3.50;;;;;;;;;;5112519;28;20035;-67
2023/07/24 13:05:14;;;;;;;6.10;3.13;;;;;;;;;;5114217;28;20040;-68
2023/07/24 13:07:39;;;;;;;6.80;3.53;;;;;;;;;;5113429;28;20080;-68
2023/07/24 13:10:05;;;;;;;6.82;3.50;;;;;;;;;;5113148;28;20026;-68
2023/07/24 13:12:30;;;;;;;5.43;3.00;;;;;;;;;;5088941;28;20016;-67
2023/07/24 13:14:55;;;;;;;5.93;3.20;;;;;;;;;;5112969;28;20027;-67
2023/07/24 13:17:21;;;;;;;6.03;3.17;;;;;;;;;;5114199;28;20024;-67
2023/07/24 13:19:46;;;;;;;5.70;2.60;;;;;;;;;;5112262;28;20020;-67
2023/07/24 13:22:11;;;;;;;6.10;3.30;;;;;;;;;;5110126;28;20032;-68
2023/07/24 13:24:36;;;;;;;5.53;2.88;;;;;;;;;;5112977;28;20356;-67
2023/07/24 13:27:02;;;;;;;6.13;3.10;;;;;;;;;;5111866;28;20481;-67
2023/07/24 13:29:29;;;;;;;7.13;3.25;;;;;;;;;;5111302;28;20027;-67
2023/07/24 13:31:54;;;;;;;7.07;3.47;;;;;;;;;;5110454;28;20716;-67
2023/07/24 13:34:20;;;;;;;7.00;3.10;;;;;;;;;;5110277;28;20141;-68
2023/07/24 13:36:48;;;;;;;4.55;2.70;;;;;;;;;;5111179;28;20095;-68
2023/07/24 13:39:13;;;;;;;5.63;2.92;;;;;;;;;;5112152;28;20464;-68
2023/07/24 13:41:38;;;;;;;5.78;2.90;;;;;;;;;;5114743;28;20090;-68
2023/07/24 13:44:04;;;;;;;6.90;2.80;;;;;;;;;;5114446;28;20030;-67
2023/07/24 13:46:29;;;;;;;5.00;2.80;;;;;;;;;;5113502;28;20043;-68
2023/07/24 13:48:55;;;;;;;5.40;2.90;;;;;;;;;;5100038;28;20019;-69
2023/07/24 13:51:20;;;;;;;5.90;2.75;;;;;;;;;;5113084;28;20499;-69
2023/07/24 13:53:48;;;;;;;4.15;2.70;;;;;;;;;;5111731;28;20103;-69
2023/07/24 13:56:14;;;;;;;5.00;2.58;;;;;;;;;;5112484;28;20464;-69
2023/07/24 13:58:39;;;;;;;4.18;2.58;;;;;;;;;;5111992;28;20027;-69
2023/07/24 14:01:07;;;;;;;5.57;2.72;;;;;;;;;;5112429;28;20049;-68
2023/07/24 14:03:32;;;;;;;4.60;2.33;;;;;;;;;;5111915;28;20490;-68
2023/07/24 14:05:57;;;;;;;5.65;2.45;;;;;;;;;;5109512;28;20043;-70
2023/07/24 14:08:22;;;;;;;4.72;2.50;;;;;;;;;;5111632;28;20440;-69
2023/07/24 14:10:48;;;;;;;4.75;2.47;;;;;;;;;;5109088;28;20084;-69
2023/07/24 14:13:13;;;;;;;3.33;1.75;;;;;;;;;;5111970;28;20020;-71
2023/07/24 14:15:38;;;;;;;4.90;1.85;;;;;;;;;;5111247;28;20023;-69
2023/07/24 14:18:03;;;;;;;5.75;2.10;;;;;;;;;;5110122;28;20034;-68
2023/07/24 14:20:28;;;;;;;4.60;1.80;;;;;;;;;;5108449;28;20024;-70
2023/07/24 14:22:54;;;;;;;3.50;1.60;;;;;;;;;;5111033;28;20092;-71
2023/07/24 14:25:19;;;;;;;3.47;1.67;;;;;;;;;;5113323;28;20020;-72
2023/07/24 14:27:44;;;;;;;5.43;2.00;;;;;;;;;;5112111;28;20024;-71
2023/07/24 14:30:10;;;;;;;3.75;1.60;;;;;;;;;;5111642;28;20161;-71
2023/07/24 14:32:35;;;;;;;4.80;1.63;;;;;;;;;;5105412;28;20023;-71
2023/07/24 14:35:01;;;;;;;3.15;1.50;;;;;;;;;;5101536;28;20456;-71